createdAt,value
2019-01-10T00:02:15.042Z,7.17
2019-01-10T00:07:38.148Z,4.93
2019-01-10T00:13:01.341Z,4.60
2019-01-10T00:18:24.415Z,4.43
2019-01-10T00:23:48.030Z,6.83
2019-01-10T00:29:10.751Z,6.03
2019-01-10T00:34:33.814Z,4.10
2019-01-10T00:39:56.834Z,4.43
2019-01-10T00:45:19.979Z,3.37
2019-01-10T00:50:43.311Z,3.37
2019-01-10T00:56:06.612Z,3.83
2019-01-10T01:01:29.743Z,7.77
2019-01-10T01:06:52.627Z,5.77
2019-01-10T01:12:15.851Z,3.70
2019-01-10T01:17:38.826Z,4.20
2019-01-10T01:23:01.668Z,6.83
2019-01-10T01:28:25.022Z,4.47
2019-01-10T01:33:48.120Z,6.03
2019-01-10T01:39:11.342Z,6.97
2019-01-10T01:44:34.335Z,4.83
2019-01-10T01:49:57.701Z,4.33
2019-01-10T01:55:20.485Z,4.27
2019-01-10T02:00:43.247Z,2.70
2019-01-10T02:06:06.195Z,3.63
2019-01-10T02:11:28.833Z,2.10
2019-01-10T02:16:51.572Z,5.47
2019-01-10T02:22:14.678Z,3.90
2019-01-10T02:27:37.878Z,3.57
2019-01-10T02:33:00.874Z,5.67
2019-01-10T02:38:24.184Z,3.30
2019-01-10T02:43:47.073Z,4.73
2019-01-10T02:49:10.516Z,4.40
2019-01-10T02:54:33.705Z,6.10
2019-01-10T02:59:56.883Z,4.50
2019-01-10T03:05:20.918Z,4.07
2019-01-10T03:10:44.035Z,3.40
2019-01-10T03:16:07.108Z,7.57
2019-01-10T03:21:30.482Z,4.40
2019-01-10T03:26:53.557Z,3.60
2019-01-10T03:32:16.536Z,6.10
2019-01-10T03:37:39.738Z,3.80
2019-01-10T03:43:03.033Z,4.13
2019-01-10T03:48:26.121Z,5.43
2019-01-10T03:53:49.483Z,3.93
2019-01-10T03:59:12.623Z,5.00
2019-01-10T04:04:35.785Z,2.77
2019-01-10T04:09:58.745Z,3.37
2019-01-10T04:15:21.637Z,3.40
2019-01-10T04:20:45.003Z,3.27
2019-01-10T04:26:08.211Z,2.27
2019-01-10T04:31:31.346Z,4.93
2019-01-10T04:36:54.569Z,3.50
2019-01-10T04:42:17.625Z,3.60
2019-01-10T04:47:40.564Z,2.10
2019-01-10T04:53:03.569Z,3.33
2019-01-10T04:58:26.521Z,4.53
2019-01-10T05:03:49.838Z,2.50
2019-01-10T05:09:13.619Z,4.60
2019-01-10T05:14:37.199Z,1.73
2019-01-10T05:20:00.115Z,3.90
2019-01-10T05:25:22.975Z,4.63
2019-01-10T05:30:45.625Z,4.73
2019-01-10T05:36:08.783Z,4.87
2019-01-10T05:41:31.335Z,4.30
2019-01-10T05:46:54.562Z,4.03
2019-01-10T05:52:17.580Z,5.10
2019-01-10T05:57:40.368Z,2.40
2019-01-10T06:03:03.527Z,2.93
2019-01-10T06:08:26.671Z,4.97
2019-01-10T06:13:49.608Z,3.90
2019-01-10T06:19:12.965Z,4.30
2019-01-10T06:24:36.191Z,4.70
2019-01-10T06:29:58.951Z,3.17
2019-01-10T06:35:22.190Z,3.03
2019-01-10T06:40:45.107Z,5.43
2019-01-10T06:46:08.304Z,4.00
2019-01-10T06:51:31.418Z,4.10
2019-01-10T06:56:54.164Z,3.47
2019-01-10T07:02:16.982Z,3.97
2019-01-10T07:07:40.322Z,4.47
2019-01-10T07:13:03.572Z,4.83
2019-01-10T07:18:27.010Z,4.10
2019-01-10T07:23:50.486Z,4.23
2019-01-10T07:29:12.909Z,3.17
2019-01-10T07:34:36.009Z,3.90
2019-01-10T07:39:59.218Z,6.23
2019-01-10T07:45:28.960Z,1.60
2019-01-10T07:50:52.043Z,5.63
2019-01-10T07:56:15.464Z,2.57
2019-01-10T08:01:38.709Z,4.60
2019-01-10T08:07:01.592Z,5.70
2019-01-10T08:12:24.515Z,4.53
2019-01-10T08:17:47.822Z,4.57
2019-01-10T08:23:10.739Z,3.47
2019-01-10T08:28:33.554Z,2.63
2019-01-10T08:33:56.197Z,3.70
2019-01-10T08:39:19.926Z,3.63
2019-01-10T08:44:43.116Z,3.77
2019-01-10T08:50:07.698Z,6.50
2019-01-10T08:55:31.902Z,5.10
2019-01-10T09:00:55.421Z,3.87
2019-01-10T09:06:18.470Z,3.30
2019-01-10T09:11:41.588Z,5.40
2019-01-10T09:17:04.613Z,5.00
2019-01-10T09:22:27.553Z,4.23
2019-01-10T09:27:50.681Z,3.07
2019-01-10T09:33:13.874Z,5.70
2019-01-10T09:38:36.874Z,4.03
2019-01-10T09:44:00.247Z,3.07
2019-01-10T09:49:23.581Z,2.30
2019-01-10T09:54:46.801Z,3.77
2019-01-10T10:00:21.575Z,4.40
2019-01-10T10:05:44.636Z,2.87
2019-01-10T10:11:07.700Z,5.77
2019-01-10T10:16:30.626Z,3.50
2019-01-10T10:21:54.070Z,5.00
2019-01-10T10:27:17.078Z,3.70
2019-01-10T10:32:40.543Z,4.77
2019-01-10T10:38:03.998Z,3.53
2019-01-10T10:43:26.982Z,6.50
2019-01-10T10:48:50.154Z,3.50
2019-01-10T10:54:12.955Z,5.93
2019-01-10T10:59:35.809Z,7.23
2019-01-10T11:04:59.122Z,4.23
2019-01-10T11:10:23.488Z,7.40
2019-01-10T11:15:46.295Z,5.00
2019-01-10T11:21:09.232Z,8.40
2019-01-10T11:26:32.301Z,6.73
2019-01-10T11:31:55.856Z,5.73
2019-01-10T11:37:19.019Z,10.93
2019-01-10T11:42:42.561Z,7.83
2019-01-10T11:48:05.599Z,9.47
2019-01-10T11:53:35.403Z,8.47
2019-01-10T11:58:53.332Z,9.80
2019-01-10T12:04:16.487Z,7.50
2019-01-10T12:09:39.837Z,10.17
2019-01-10T12:15:03.138Z,7.83
2019-01-10T12:20:26.466Z,4.60
2019-01-10T12:25:49.515Z,5.40
2019-01-10T12:31:12.730Z,4.13
2019-01-10T12:36:35.625Z,2.93
2019-01-10T12:41:58.788Z,3.83
2019-01-10T12:47:21.753Z,2.70
2019-01-10T12:52:44.304Z,4.27
2019-01-10T12:58:08.399Z,2.93
2019-01-10T13:03:31.174Z,2.67
2019-01-10T13:08:54.211Z,3.37
2019-01-10T13:14:17.322Z,3.60
2019-01-10T13:19:41.083Z,4.53
2019-01-10T13:25:04.310Z,3.53
2019-01-10T13:30:27.745Z,7.17
2019-01-10T13:35:50.958Z,5.40
2019-01-10T13:41:13.749Z,4.23
2019-01-10T13:46:37.160Z,5.03
2019-01-10T13:52:00.235Z,3.60
2019-01-10T13:57:23.038Z,5.03
2019-01-10T14:02:46.403Z,3.77
2019-01-10T14:08:09.505Z,3.60
2019-01-10T14:13:32.454Z,3.13
2019-01-10T14:18:55.491Z,3.70
2019-01-10T14:24:18.911Z,2.80
2019-01-10T14:29:41.978Z,4.37
2019-01-10T14:35:05.372Z,3.47
2019-01-10T14:40:28.603Z,1.50
2019-01-10T14:45:51.031Z,3.33
2019-01-10T14:51:14.037Z,5.67
2019-01-10T14:56:36.658Z,2.17
2019-01-10T15:01:59.864Z,5.57
2019-01-10T15:07:22.723Z,3.47
2019-01-10T15:12:46.384Z,4.20
2019-01-10T15:18:09.275Z,5.10
2019-01-10T15:23:32.496Z,5.87
2019-01-10T15:28:55.719Z,2.77
2019-01-10T15:34:18.571Z,4.27
2019-01-10T15:39:41.535Z,3.00
2019-01-10T15:45:06.154Z,3.23
2019-01-10T15:50:29.639Z,3.17
2019-01-10T15:55:52.687Z,4.00
2019-01-10T16:01:15.871Z,4.70
2019-01-10T16:06:39.483Z,3.17
2019-01-10T16:12:02.232Z,3.43
2019-01-10T16:17:25.598Z,3.37
2019-01-10T16:22:49.014Z,2.93
2019-01-10T16:28:13.215Z,5.97
2019-01-10T16:33:36.030Z,2.93
2019-01-10T16:39:00.642Z,3.77
2019-01-10T16:44:24.229Z,3.47
2019-01-10T16:49:47.320Z,4.37
2019-01-10T16:55:11.033Z,2.27
2019-01-10T17:00:35.062Z,4.07
2019-01-10T17:05:57.722Z,3.77
2019-01-10T17:11:21.332Z,4.47
2019-01-10T17:16:49.944Z,5.23
2019-01-10T17:22:09.077Z,4.23
2019-01-10T17:27:32.714Z,4.50
2019-01-10T17:32:56.156Z,7.57
2019-01-10T17:38:19.571Z,5.47
2019-01-10T17:43:42.465Z,9.37
2019-01-10T17:49:05.876Z,7.37
2019-01-10T17:54:29.048Z,12.33
2019-01-10T17:59:52.179Z,18.50
2019-01-10T18:05:15.669Z,21.43
2019-01-10T18:10:39.118Z,18.90
2019-01-10T18:16:01.911Z,13.97
2019-01-10T18:21:24.923Z,9.07
2019-01-10T18:26:48.182Z,8.30
2019-01-10T18:32:11.269Z,8.50
2019-01-10T18:37:34.179Z,5.07
2019-01-10T18:42:57.370Z,6.23
2019-01-10T18:48:20.648Z,5.43
2019-01-10T18:53:44.631Z,4.60
2019-01-10T18:59:07.481Z,5.13
2019-01-10T19:04:30.678Z,6.30
2019-01-10T19:09:54.427Z,9.07
2019-01-10T19:15:18.882Z,8.37
2019-01-10T19:20:42.201Z,6.90
2019-01-10T19:26:05.364Z,7.00
2019-01-10T19:31:29.196Z,5.27
2019-01-10T19:36:52.404Z,5.30
2019-01-10T19:42:17.735Z,6.33
2019-01-10T19:47:40.858Z,6.70
2019-01-10T19:53:03.778Z,4.67
2019-01-10T19:58:29.639Z,4.07
2019-01-10T20:03:54.881Z,6.73
2019-01-10T20:09:20.471Z,7.87
2019-01-10T20:14:43.960Z,9.40
2019-01-10T20:20:13.986Z,7.17
2019-01-10T20:25:37.668Z,9.13
2019-01-10T20:31:01.149Z,8.73
2019-01-10T20:36:23.952Z,10.30
2019-01-10T20:41:46.809Z,8.43
2019-01-10T20:47:10.903Z,11.27
2019-01-10T20:52:34.078Z,8.73
2019-01-10T20:57:56.840Z,8.70
2019-01-10T21:03:21.261Z,8.97
2019-01-10T21:08:46.135Z,6.73
2019-01-10T21:14:10.641Z,9.50
2019-01-10T21:19:33.369Z,8.70
2019-01-10T21:24:58.298Z,10.90
2019-01-10T21:30:22.144Z,8.77
2019-01-10T21:35:45.392Z,7.70
2019-01-10T21:41:08.077Z,9.93
2019-01-10T21:46:30.834Z,10.97
2019-01-10T21:51:54.227Z,10.57
2019-01-10T21:57:17.410Z,6.33
2019-01-10T22:02:42.261Z,7.70
2019-01-10T22:08:08.891Z,5.43
2019-01-10T22:13:31.886Z,9.03
2019-01-10T22:18:55.233Z,7.40
2019-01-10T22:24:18.243Z,12.37
2019-01-10T22:29:40.971Z,10.80
2019-01-10T22:35:04.690Z,8.23
2019-01-10T22:40:27.615Z,8.13
2019-01-10T22:45:50.610Z,6.83
2019-01-10T22:51:13.829Z,6.33
2019-01-10T22:56:36.902Z,6.67
2019-01-10T23:01:59.979Z,7.00
2019-01-10T23:07:24.020Z,4.77
2019-01-10T23:12:47.005Z,4.67
2019-01-10T23:18:10.190Z,4.50
2019-01-10T23:23:33.012Z,4.30
2019-01-10T23:28:55.979Z,6.67
2019-01-10T23:34:19.686Z,7.20
2019-01-10T23:39:43.074Z,5.03
2019-01-10T23:45:06.327Z,5.27
2019-01-10T23:50:29.178Z,4.67
2019-01-10T23:55:52.382Z,7.27
